createdAt,value
2022-09-18T00:01:17.807Z,76.94
2022-09-18T00:06:51.051Z,77.53
2022-09-18T00:12:22.799Z,77.36
2022-09-18T00:17:57.672Z,76.94
2022-09-18T00:23:33.144Z,75.07
2022-09-18T00:29:12.548Z,75.52
2022-09-18T00:37:41.822Z,75.25
2022-09-18T00:43:23.222Z,75.39
2022-09-18T00:46:17.894Z,75.66
2022-09-18T00:49:09.451Z,74.90
2022-09-18T00:57:34.838Z,75.64
2022-09-18T01:06:03.067Z,76.66
2022-09-18T01:11:43.644Z,77.85
2022-09-18T01:23:40.517Z,77.52
2022-09-18T01:32:05.111Z,78.42
2022-09-18T01:40:26.962Z,76.91
2022-09-18T01:48:58.097Z,77.45
2022-09-18T01:57:24.287Z,77.28
2022-09-18T02:00:16.984Z,77.61
2022-09-18T02:05:58.256Z,76.04
2022-09-18T02:08:48.515Z,75.60
2022-09-18T02:14:32.346Z,77.11
2022-09-18T02:20:13.820Z,74.97
2022-09-18T02:25:51.048Z,74.28
2022-09-18T02:34:20.029Z,75.18
2022-09-18T02:40:24.371Z,75.88
2022-09-18T02:46:12.199Z,76.21
2022-09-18T02:52:10.860Z,76.31
2022-09-18T02:57:52.811Z,75.74
2022-09-18T03:06:15.694Z,76.27
2022-09-18T03:11:53.778Z,77.16
2022-09-18T03:17:24.333Z,77.04
2022-09-18T03:22:56.197Z,76.25
2022-09-18T03:25:44.711Z,76.71
2022-09-18T03:31:20.193Z,76.62
2022-09-18T03:34:08.836Z,76.83
2022-09-18T03:39:41.574Z,77.16
2022-09-18T03:42:30.093Z,77.37
2022-09-18T03:48:20.534Z,75.88
2022-09-18T03:54:18.382Z,76.74
2022-09-18T03:59:53.893Z,77.29
2022-09-18T04:05:44.890Z,76.35
2022-09-18T04:11:20.297Z,76.62
2022-09-18T04:19:58.124Z,75.41
2022-09-18T04:22:46.006Z,75.11
2022-09-18T04:28:24.456Z,75.10
2022-09-18T04:34:00.189Z,76.28
2022-09-18T04:39:52.288Z,76.04
2022-09-18T04:45:27.401Z,75.04
2022-09-18T04:50:57.851Z,75.93
2022-09-18T04:56:34.074Z,75.65
2022-09-18T05:02:02.595Z,73.83
2022-09-18T05:10:20.570Z,73.25
2022-09-18T05:13:09.084Z,72.65
2022-09-18T05:15:58.150Z,72.69
2022-09-18T05:21:26.965Z,72.61
2022-09-18T05:24:18.290Z,72.75
2022-09-18T05:29:52.845Z,73.22
2022-09-18T05:35:22.517Z,73.88
2022-09-18T05:38:12.072Z,74.27
2022-09-18T05:43:49.921Z,74.33
2022-09-18T05:46:44.570Z,74.02
2022-09-18T05:49:35.965Z,74.58
2022-09-18T05:52:38.850Z,74.63
2022-09-18T05:58:16.434Z,71.90
2022-09-18T06:03:54.392Z,72.86
2022-09-18T06:06:42.849Z,72.79
2022-09-18T06:09:37.733Z,72.57
2022-09-18T06:15:06.142Z,71.44
2022-09-18T06:17:55.729Z,72.34
2022-09-18T06:20:44.494Z,73.07
2022-09-18T06:23:32.436Z,72.05
2022-09-18T06:29:02.065Z,71.73
2022-09-18T06:31:50.612Z,70.37
2022-09-18T06:37:42.216Z,70.23
2022-09-18T06:40:30.573Z,69.14
2022-09-18T06:43:30.219Z,68.88
2022-09-18T06:46:21.566Z,69.55
2022-09-18T06:51:51.905Z,69.10
2022-09-18T06:54:46.000Z,69.18
2022-09-18T07:03:03.630Z,68.57
2022-09-18T07:08:36.858Z,67.92
2022-09-18T07:11:31.394Z,66.78
2022-09-18T07:17:10.507Z,62.64
2022-09-18T07:20:01.824Z,62.18
2022-09-18T07:23:00.806Z,61.83
2022-09-18T07:28:36.972Z,60.90
2022-09-18T07:34:12.512Z,61.40
2022-09-18T07:39:54.840Z,58.97
2022-09-18T07:42:42.506Z,58.96
2022-09-18T07:45:33.600Z,58.79
2022-09-18T07:51:07.291Z,56.88
2022-09-18T07:57:05.905Z,55.94
2022-09-18T08:02:44.221Z,56.86
2022-09-18T08:08:23.198Z,57.99
2022-09-18T08:14:05.069Z,56.68
2022-09-18T08:19:32.825Z,57.98
2022-09-18T08:25:08.907Z,56.94
2022-09-18T08:30:52.486Z,56.51
2022-09-18T08:36:23.916Z,57.08
2022-09-18T08:39:13.925Z,58.10
2022-09-18T08:45:01.291Z,58.15
2022-09-18T08:50:59.723Z,58.26
2022-09-18T08:56:36.748Z,57.16
2022-09-18T09:02:25.081Z,56.50
2022-09-18T09:08:17.633Z,57.60
2022-09-18T09:11:11.914Z,57.73
2022-09-18T09:17:09.994Z,57.41
2022-09-18T09:22:48.211Z,56.30
2022-09-18T09:28:26.133Z,55.63
2022-09-18T09:34:05.714Z,57.91
2022-09-18T09:36:57.134Z,56.48
2022-09-18T09:39:48.663Z,56.49
2022-09-18T09:42:40.234Z,56.13
2022-09-18T09:48:16.725Z,56.30
2022-09-18T09:53:52.490Z,56.23
2022-09-18T09:59:34.024Z,54.13
2022-09-18T10:02:30.234Z,55.46
2022-09-18T10:05:24.402Z,56.09
2022-09-18T10:10:57.975Z,55.66
2022-09-18T10:13:49.901Z,54.09
2022-09-18T10:19:31.775Z,52.85
2022-09-18T10:25:15.803Z,52.33
2022-09-18T10:33:41.821Z,52.10
2022-09-18T10:39:26.925Z,51.90
2022-09-18T10:42:19.253Z,52.58
2022-09-18T10:45:15.484Z,51.72
2022-09-18T10:50:57.325Z,48.54
2022-09-18T10:54:33.852Z,48.73
2022-09-18T11:00:49.104Z,49.34
2022-09-18T11:06:32.522Z,49.00
2022-09-18T11:12:24.408Z,46.46
2022-09-18T11:15:21.864Z,44.96
2022-09-18T11:20:52.140Z,43.74
2022-09-18T11:26:30.908Z,44.81
2022-09-18T11:32:13.842Z,43.26
2022-09-18T11:40:48.288Z,42.74
2022-09-18T11:43:39.020Z,43.56
2022-09-18T11:52:12.179Z,44.92
2022-09-18T11:57:51.722Z,45.11
2022-09-18T12:03:31.315Z,45.62
2022-09-18T12:09:15.810Z,45.67
2022-09-18T12:14:55.503Z,47.05
2022-09-18T12:20:34.851Z,46.44
2022-09-18T12:26:26.457Z,46.37
2022-09-18T12:32:13.796Z,45.27
2022-09-18T12:37:55.230Z,47.23
2022-09-18T12:41:00.497Z,47.45
2022-09-18T12:47:00.460Z,45.92
2022-09-18T12:52:55.442Z,46.50
2022-09-18T12:58:38.283Z,44.88
2022-09-18T13:01:31.585Z,46.78
2022-09-18T13:04:23.448Z,46.78
2022-09-18T13:10:04.303Z,46.01
2022-09-18T13:15:37.281Z,44.45
2022-09-18T13:18:34.557Z,44.62
2022-09-18T13:24:17.083Z,45.36
2022-09-18T13:27:09.831Z,45.23
2022-09-18T13:32:47.581Z,45.47
2022-09-18T13:38:24.660Z,45.26
2022-09-18T13:41:13.726Z,45.31
2022-09-18T13:46:48.955Z,44.52
2022-09-18T13:52:43.289Z,45.34
2022-09-18T13:59:01.765Z,45.48
2022-09-18T14:02:10.307Z,44.93
2022-09-18T14:05:32.704Z,45.22
2022-09-18T14:08:39.211Z,45.49
2022-09-18T14:14:16.647Z,45.12
2022-09-18T14:20:04.200Z,46.21
2022-09-18T14:25:48.500Z,47.28
2022-09-18T14:28:38.471Z,47.80
2022-09-18T14:35:33.020Z,47.40
2022-09-18T14:41:15.250Z,47.83
2022-09-18T14:46:57.688Z,49.56
2022-09-18T14:52:46.583Z,49.84
2022-09-18T14:58:26.648Z,50.79
2022-09-18T15:04:09.075Z,50.42
2022-09-18T15:10:06.771Z,51.13
2022-09-18T15:15:44.156Z,52.21
2022-09-18T15:21:33.063Z,53.06
2022-09-18T15:27:10.310Z,52.48
2022-09-18T15:30:01.310Z,52.89
2022-09-18T15:35:44.869Z,53.83
2022-09-18T15:38:36.952Z,53.05
2022-09-18T15:44:08.411Z,54.02
2022-09-18T15:46:57.131Z,53.62
2022-09-18T15:52:41.946Z,54.29
2022-09-18T15:58:26.833Z,54.35
2022-09-18T16:04:20.078Z,55.04
2022-09-18T16:13:01.896Z,54.23
2022-09-18T16:15:54.938Z,54.70
2022-09-18T16:21:43.436Z,54.10
2022-09-18T16:27:19.633Z,54.25
2022-09-18T16:33:06.881Z,53.87
2022-09-18T16:38:49.165Z,53.67
2022-09-18T16:44:22.210Z,54.70
2022-09-18T16:50:12.752Z,55.53
2022-09-18T16:58:31.011Z,55.81
2022-09-18T17:01:23.218Z,56.64
2022-09-18T17:04:11.308Z,56.63
2022-09-18T17:09:46.223Z,57.19
2022-09-18T17:15:23.227Z,57.73
2022-09-18T17:18:12.824Z,57.56
2022-09-18T17:23:51.138Z,58.26
2022-09-18T17:26:41.322Z,58.50
2022-09-18T17:32:21.164Z,58.92
2022-09-18T17:35:10.326Z,58.88
2022-09-18T17:38:00.523Z,58.50
2022-09-18T17:43:48.211Z,57.78
2022-09-18T17:49:27.035Z,58.70
2022-09-18T17:52:15.604Z,58.57
2022-09-18T17:57:52.113Z,58.25
2022-09-18T18:03:27.820Z,58.37
2022-09-18T18:08:59.297Z,58.70
2022-09-18T18:14:36.567Z,58.71
2022-09-18T18:20:10.869Z,58.09
2022-09-18T18:23:00.777Z,57.98
2022-09-18T18:28:38.855Z,57.71
2022-09-18T18:34:15.130Z,56.84
2022-09-18T18:39:49.126Z,57.83
2022-09-18T18:45:26.685Z,57.52
2022-09-18T18:51:02.077Z,57.89
2022-09-18T18:53:50.347Z,57.59
2022-09-18T18:56:40.389Z,58.00
2022-09-18T18:59:29.628Z,58.12
2022-09-18T19:02:18.118Z,57.93
2022-09-18T19:07:53.656Z,58.13
2022-09-18T19:10:43.344Z,58.35
2022-09-18T19:13:33.618Z,57.86
2022-09-18T19:19:12.684Z,58.20
2022-09-18T19:22:02.812Z,58.18
2022-09-18T19:27:31.197Z,58.30
2022-09-18T19:33:05.929Z,57.95
2022-09-18T19:35:54.762Z,58.16
2022-09-18T19:42:14.734Z,58.33
2022-09-18T19:47:54.749Z,58.94
2022-09-18T19:53:32.190Z,58.57
2022-09-18T19:56:41.660Z,58.61
2022-09-18T19:59:11.690Z,58.86
2022-09-18T20:02:00.920Z,58.92
2022-09-18T20:07:31.295Z,58.60
2022-09-18T20:15:46.665Z,58.18
2022-09-18T20:21:21.922Z,57.97
2022-09-18T20:26:55.532Z,58.33
2022-09-18T20:29:43.795Z,58.21
2022-09-18T20:35:13.605Z,58.31
2022-09-18T20:38:03.231Z,58.33
2022-09-18T20:43:48.250Z,58.17
2022-09-18T20:49:23.001Z,58.02
2022-09-18T20:52:14.638Z,58.12
2022-09-18T20:57:51.942Z,58.44
2022-09-18T21:00:40.937Z,58.19
2022-09-18T21:03:29.579Z,57.99
2022-09-18T21:09:06.703Z,58.65
2022-09-18T21:11:56.556Z,58.87
2022-09-18T21:14:44.454Z,58.80
2022-09-18T21:20:17.451Z,58.17
2022-09-18T21:23:23.099Z,58.62
2022-09-18T21:29:02.448Z,58.75
2022-09-18T21:34:31.518Z,58.20
2022-09-18T21:37:20.997Z,57.97
2022-09-18T21:42:54.330Z,57.70
2022-09-18T21:48:44.973Z,58.13
2022-09-18T21:51:33.274Z,57.86
2022-09-18T21:57:12.429Z,57.71
2022-09-18T22:00:01.307Z,57.36
2022-09-18T22:05:38.957Z,56.97
2022-09-18T22:11:16.675Z,56.70
2022-09-18T22:14:07.132Z,56.19
2022-09-18T22:16:56.650Z,55.87
2022-09-18T22:19:44.997Z,55.90
2022-09-18T22:25:18.702Z,56.10
2022-09-18T22:28:07.374Z,56.12
2022-09-18T22:33:43.099Z,56.17
2022-09-18T22:39:19.677Z,54.96
2022-09-18T22:42:08.410Z,55.24
2022-09-18T22:47:44.608Z,55.43
2022-09-18T22:53:20.767Z,55.83
2022-09-18T22:56:11.455Z,55.63
2022-09-18T23:01:51.606Z,55.86
2022-09-18T23:04:43.224Z,55.17
2022-09-18T23:10:14.313Z,54.70
2022-09-18T23:13:03.360Z,53.86
2022-09-18T23:15:52.623Z,54.60
2022-09-18T23:24:17.604Z,54.76
2022-09-18T23:27:06.253Z,54.50
2022-09-18T23:29:57.260Z,54.79
2022-09-18T23:35:38.903Z,54.76
2022-09-18T23:41:30.043Z,54.63
2022-09-18T23:44:19.371Z,55.03
2022-09-18T23:50:01.364Z,54.08
2022-09-18T23:55:37.557Z,54.64
